createdAt,value
2019-04-07T00:02:22.433Z,2.90
2019-04-07T00:04:53.461Z,3.07
2019-04-07T00:07:24.173Z,3.24
2019-04-07T00:09:54.611Z,3.40
2019-04-07T00:12:25.388Z,3.40
2019-04-07T00:14:58.356Z,3.30
2019-04-07T00:17:31.160Z,3.30
2019-04-07T00:20:01.578Z,3.25
2019-04-07T00:22:32.384Z,3.21
2019-04-07T00:25:02.796Z,3.20
2019-04-07T00:27:33.395Z,3.22
2019-04-07T00:30:04.068Z,3.41
2019-04-07T00:32:35.038Z,3.49
2019-04-07T00:35:05.761Z,3.33
2019-04-07T00:37:36.327Z,3.31
2019-04-07T00:40:08.627Z,3.22
2019-04-07T00:42:39.137Z,3.17
2019-04-07T00:45:09.777Z,3.27
2019-04-07T00:47:40.304Z,3.24
2019-04-07T00:50:10.704Z,3.24
2019-04-07T00:52:41.105Z,3.36
2019-04-07T00:55:11.660Z,3.34
2019-04-07T00:57:42.038Z,3.43
2019-04-07T01:00:13.555Z,3.38
2019-04-07T01:02:44.118Z,3.46
2019-04-07T01:05:14.795Z,3.46
2019-04-07T01:07:46.371Z,3.46
2019-04-07T01:10:17.438Z,3.47
2019-04-07T01:12:50.242Z,3.43
2019-04-07T01:15:20.752Z,3.46
2019-04-07T01:17:51.435Z,3.51
2019-04-07T01:20:22.729Z,3.64
2019-04-07T01:22:53.147Z,3.65
2019-04-07T01:25:24.167Z,3.66
2019-04-07T01:27:54.741Z,3.71
2019-04-07T01:30:25.190Z,3.62
2019-04-07T01:32:56.366Z,3.62
2019-04-07T01:35:26.827Z,3.56
2019-04-07T01:37:57.151Z,3.49
2019-04-07T01:40:27.523Z,3.79
2019-04-07T01:43:20.255Z,3.69
2019-04-07T01:46:07.456Z,3.40
2019-04-07T01:48:49.200Z,3.50
2019-04-07T01:51:44.586Z,3.43
2019-04-07T01:54:34.325Z,3.58
2019-04-07T01:57:36.419Z,3.73
2019-04-07T02:00:41.571Z,3.64
2019-04-07T02:03:29.880Z,3.41
2019-04-07T02:06:28.605Z,3.61
2019-04-07T02:09:03.358Z,3.54
2019-04-07T02:11:59.411Z,3.48
2019-04-07T02:14:48.850Z,3.47
2019-04-07T02:17:38.173Z,3.54
2019-04-07T02:20:16.711Z,3.52
2019-04-07T02:22:54.714Z,3.55
2019-04-07T02:25:41.668Z,3.64
2019-04-07T02:28:40.711Z,3.76
2019-04-07T02:31:29.633Z,3.83
2019-04-07T02:34:14.131Z,3.60
2019-04-07T02:37:03.234Z,3.50
2019-04-07T02:39:44.385Z,3.47
2019-04-07T02:42:23.999Z,3.47
2019-04-07T02:45:09.167Z,3.43
2019-04-07T02:47:58.456Z,3.79
2019-04-07T02:50:50.898Z,3.82
2019-04-07T02:53:31.485Z,3.80
2019-04-07T02:56:29.852Z,3.66
2019-04-07T02:59:25.527Z,3.61
2019-04-07T03:02:21.087Z,3.85
2019-04-07T03:05:10.203Z,3.76
2019-04-07T03:08:05.886Z,3.67
2019-04-07T03:10:54.240Z,3.66
2019-04-07T03:13:43.366Z,4.02
2019-04-07T03:16:24.470Z,3.96
2019-04-07T03:19:09.562Z,4.14
2019-04-07T03:22:03.828Z,4.16
2019-04-07T03:24:46.848Z,3.99
2019-04-07T03:27:36.080Z,3.96
2019-04-07T03:30:33.104Z,4.15
2019-04-07T03:33:15.404Z,4.32
2019-04-07T03:35:52.967Z,4.25
2019-04-07T03:38:33.332Z,4.18
2019-04-07T03:41:13.683Z,4.12
2019-04-07T03:44:12.854Z,4.18
2019-04-07T03:46:49.347Z,4.15
2019-04-07T03:49:45.673Z,4.15
2019-04-07T03:52:35.366Z,4.08
2019-04-07T03:55:15.756Z,4.06
2019-04-07T03:57:59.998Z,4.10
2019-04-07T04:01:25.943Z,3.82
2019-04-07T04:04:30.728Z,4.00
2019-04-07T04:07:31.454Z,4.09
2019-04-07T04:10:09.808Z,3.94
2019-04-07T04:12:45.692Z,3.88
2019-04-07T04:15:22.735Z,3.84
2019-04-07T04:17:55.248Z,3.83
2019-04-07T04:20:25.699Z,3.73
2019-04-07T04:22:56.051Z,3.79
2019-04-07T04:25:27.429Z,3.73
2019-04-07T04:27:58.908Z,3.71
2019-04-07T04:30:29.916Z,4.09
2019-04-07T04:33:00.452Z,4.00
2019-04-07T04:35:30.826Z,3.89
2019-04-07T04:38:01.874Z,3.90
2019-04-07T04:40:32.503Z,3.93
2019-04-07T04:43:05.024Z,3.85
2019-04-07T04:45:36.270Z,3.89
2019-04-07T04:48:06.867Z,3.85
2019-04-07T04:50:37.441Z,4.09
2019-04-07T04:53:09.248Z,4.14
2019-04-07T04:55:42.257Z,4.13
2019-04-07T04:58:12.720Z,4.22
2019-04-07T05:00:52.637Z,4.23
2019-04-07T05:03:22.964Z,4.20
2019-04-07T05:05:54.542Z,4.15
2019-04-07T05:08:25.831Z,4.26
2019-04-07T05:10:56.536Z,4.52
2019-04-07T05:13:27.265Z,4.72
2019-04-07T05:15:57.728Z,4.76
2019-04-07T05:18:30.624Z,4.87
2019-04-07T05:21:01.124Z,4.67
2019-04-07T05:23:33.418Z,4.65
2019-04-07T05:26:03.768Z,4.68
2019-04-07T05:28:36.932Z,4.61
2019-04-07T05:31:07.249Z,4.57
2019-04-07T05:33:37.756Z,4.56
2019-04-07T05:36:08.849Z,4.47
2019-04-07T05:38:39.518Z,4.53
2019-04-07T05:41:09.959Z,4.52
2019-04-07T05:43:40.565Z,4.68
2019-04-07T05:46:11.038Z,4.51
2019-04-07T05:48:42.133Z,4.60
2019-04-07T05:51:12.449Z,4.45
2019-04-07T05:53:46.429Z,4.37
2019-04-07T05:56:14.940Z,4.28
2019-04-07T05:58:45.279Z,4.23
2019-04-07T06:01:19.014Z,4.37
2019-04-07T06:03:47.955Z,4.27
2019-04-07T06:06:20.196Z,4.41
2019-04-07T06:08:50.770Z,4.46
2019-04-07T06:11:21.642Z,4.47
2019-04-07T06:13:52.887Z,4.49
2019-04-07T06:16:24.668Z,4.53
2019-04-07T06:18:55.514Z,4.62
2019-04-07T06:21:26.216Z,4.62
2019-04-07T06:23:59.843Z,4.64
2019-04-07T06:26:28.861Z,4.63
2019-04-07T06:28:59.827Z,4.70
2019-04-07T06:31:32.145Z,4.77
2019-04-07T06:34:02.269Z,4.87
2019-04-07T06:36:32.860Z,4.72
2019-04-07T06:39:05.722Z,4.54
2019-04-07T06:41:37.770Z,4.52
2019-04-07T06:44:16.561Z,4.30
2019-04-07T06:47:03.473Z,4.39
2019-04-07T06:49:44.716Z,4.28
2019-04-07T06:52:19.331Z,4.22
2019-04-07T06:55:24.621Z,4.42
2019-04-07T06:58:11.163Z,4.40
2019-04-07T07:00:54.951Z,4.45
2019-04-07T07:03:46.439Z,4.42
2019-04-07T07:06:35.982Z,4.61
2019-04-07T07:09:27.704Z,4.50
2019-04-07T07:12:30.825Z,4.46
2019-04-07T07:15:33.104Z,4.47
2019-04-07T07:18:27.262Z,4.45
2019-04-07T07:21:09.993Z,4.54
2019-04-07T07:23:47.056Z,4.56
2019-04-07T07:26:14.574Z,4.44
2019-04-07T07:28:45.797Z,4.32
2019-04-07T07:31:16.679Z,4.40
2019-04-07T07:33:47.399Z,4.32
2019-04-07T07:36:20.629Z,4.28
2019-04-07T07:38:59.566Z,4.24
2019-04-07T07:41:23.303Z,4.16
2019-04-07T07:43:54.833Z,4.28
2019-04-07T07:46:25.357Z,4.11
2019-04-07T07:48:59.003Z,4.22
2019-04-07T07:51:27.857Z,4.40
2019-04-07T07:54:00.536Z,4.27
2019-04-07T07:56:31.281Z,4.24
2019-04-07T07:59:02.585Z,4.16
2019-04-07T08:01:33.246Z,4.26
2019-04-07T08:04:03.714Z,4.60
2019-04-07T08:06:38.498Z,4.66
2019-04-07T08:09:13.669Z,4.72
2019-04-07T08:11:40.780Z,4.89
2019-04-07T08:14:15.121Z,5.10
2019-04-07T08:16:43.596Z,5.04
2019-04-07T08:19:14.022Z,5.12
2019-04-07T08:21:45.492Z,5.40
2019-04-07T08:24:18.588Z,4.63
2019-04-07T08:26:48.869Z,5.58
2019-04-07T08:29:21.422Z,5.67
2019-04-07T08:31:55.195Z,5.81
2019-04-07T08:34:24.426Z,5.86
2019-04-07T08:36:54.756Z,5.95
2019-04-07T08:39:29.083Z,5.89
2019-04-07T08:41:57.329Z,5.85
2019-04-07T08:44:29.681Z,5.79
2019-04-07T08:46:59.867Z,5.93
2019-04-07T08:49:32.697Z,6.02
2019-04-07T08:52:07.293Z,5.77
2019-04-07T08:54:34.397Z,6.07
2019-04-07T08:57:05.762Z,6.37
2019-04-07T08:59:40.536Z,6.48
2019-04-07T09:02:11.467Z,6.24
2019-04-07T09:04:44.284Z,6.06
2019-04-07T09:07:15.456Z,5.87
2019-04-07T09:09:48.470Z,5.80
2019-04-07T09:12:18.065Z,5.82
2019-04-07T09:14:49.221Z,6.00
2019-04-07T09:17:43.510Z,6.16
2019-04-07T09:20:40.906Z,6.14
2019-04-07T09:23:28.334Z,6.51
2019-04-07T09:26:19.925Z,7.19
2019-04-07T09:29:12.825Z,7.74
2019-04-07T09:31:54.801Z,7.92
2019-04-07T09:34:38.746Z,7.89
2019-04-07T09:37:43.344Z,7.61
2019-04-07T09:40:20.144Z,7.77
2019-04-07T09:43:22.434Z,8.00
2019-04-07T09:46:13.633Z,8.57
2019-04-07T09:49:10.910Z,8.74
2019-04-07T09:52:00.974Z,8.86
2019-04-07T09:55:01.047Z,8.93
2019-04-07T10:01:08.122Z,8.15
2019-04-07T10:04:07.804Z,9.38
2019-04-07T10:06:56.332Z,10.97
2019-04-07T10:10:03.639Z,14.44
2019-04-07T10:12:40.517Z,16.74
2019-04-07T10:15:39.603Z,17.77
2019-04-07T10:18:50.917Z,19.85
2019-04-07T10:21:42.974Z,19.23
2019-04-07T10:24:48.279Z,14.70
2019-04-07T10:27:36.830Z,13.00
2019-04-07T10:30:17.337Z,11.89
2019-04-07T10:33:13.324Z,13.08
2019-04-07T10:35:59.532Z,13.63
2019-04-07T10:39:07.396Z,15.55
2019-04-07T10:42:15.979Z,16.97
2019-04-07T10:45:05.880Z,16.95
2019-04-07T10:47:55.101Z,14.60
2019-04-07T10:53:41.529Z,18.64
2019-04-07T10:56:49.870Z,20.04
2019-04-07T10:59:49.411Z,18.12
2019-04-07T11:02:40.302Z,15.28
2019-04-07T11:05:28.426Z,13.43
2019-04-07T11:08:18.275Z,15.50
2019-04-07T11:11:06.647Z,16.04
2019-04-07T11:13:50.001Z,14.61
2019-04-07T11:16:52.418Z,13.77
2019-04-07T11:19:44.636Z,12.84
2019-04-07T11:22:36.716Z,11.97
2019-04-07T11:25:27.248Z,11.54
2019-04-07T11:28:13.324Z,11.30
2019-04-07T11:31:05.814Z,12.07
2019-04-07T11:33:42.155Z,14.45
2019-04-07T11:36:24.488Z,15.05
2019-04-07T11:39:13.513Z,15.11
2019-04-07T11:42:04.787Z,14.86
2019-04-07T11:44:53.098Z,13.95
2019-04-07T11:47:42.761Z,13.25
2019-04-07T11:50:27.973Z,12.91
2019-04-07T11:53:05.307Z,12.78
2019-04-07T11:55:54.631Z,13.02
2019-04-07T11:58:34.459Z,13.75
2019-04-07T12:01:30.350Z,15.45
2019-04-07T12:04:29.516Z,14.66
2019-04-07T12:07:25.128Z,13.42
2019-04-07T12:10:21.396Z,12.41
2019-04-07T12:13:09.075Z,11.67
2019-04-07T12:15:59.293Z,11.36
2019-04-07T12:18:55.559Z,11.81
2019-04-07T12:21:45.050Z,12.63
2019-04-07T12:24:41.269Z,12.79
2019-04-07T12:27:30.273Z,13.27
2019-04-07T12:30:22.511Z,13.36
2019-04-07T12:33:18.002Z,12.77
2019-04-07T12:36:44.823Z,12.24
2019-04-07T12:39:34.963Z,11.97
2019-04-07T12:42:33.296Z,11.59
2019-04-07T12:45:22.311Z,11.25
2019-04-07T12:51:12.221Z,10.81
2019-04-07T12:53:53.335Z,10.93
2019-04-07T13:00:24.156Z,11.02
2019-04-07T13:02:58.528Z,10.56
2019-04-07T13:05:46.696Z,9.88
2019-04-07T13:08:36.313Z,9.56
2019-04-07T13:11:25.438Z,9.66
2019-04-07T13:14:16.645Z,9.76
2019-04-07T13:17:09.018Z,9.86
2019-04-07T13:20:02.303Z,9.79
2019-04-07T13:25:25.115Z,9.86
2019-04-07T13:28:15.216Z,9.94
2019-04-07T13:31:04.954Z,9.76
2019-04-07T13:33:53.334Z,9.78
2019-04-07T13:36:34.811Z,9.35
2019-04-07T13:39:26.300Z,9.17
2019-04-07T13:42:16.397Z,9.25
2019-04-07T13:44:58.536Z,9.16
2019-04-07T13:47:58.455Z,9.09
2019-04-07T13:50:40.586Z,8.88
2019-04-07T13:53:36.711Z,8.57
2019-04-07T13:56:47.993Z,8.68
2019-04-07T13:59:45.326Z,9.13
2019-04-07T14:02:30.179Z,9.55
2019-04-07T14:05:15.257Z,9.75
2019-04-07T14:08:04.206Z,9.75
2019-04-07T14:10:59.334Z,9.55
2019-04-07T14:14:05.729Z,9.24
2019-04-07T14:17:08.561Z,8.80
2019-04-07T14:19:57.723Z,8.47
2019-04-07T14:22:46.585Z,8.21
2019-04-07T14:25:35.642Z,8.19
2019-04-07T14:28:19.003Z,8.71
2019-04-07T14:31:12.858Z,9.41
2019-04-07T14:34:07.466Z,9.39
2019-04-07T14:37:03.215Z,9.51
2019-04-07T14:39:43.420Z,9.48
2019-04-07T14:42:39.486Z,9.26
2019-04-07T14:45:29.473Z,9.10
2019-04-07T14:48:34.776Z,8.36
2019-04-07T14:51:24.073Z,8.41
2019-04-07T14:54:22.798Z,9.67
2019-04-07T14:57:12.803Z,10.93
2019-04-07T14:59:57.846Z,12.16
2019-04-07T15:02:29.102Z,13.10
2019-04-07T15:05:04.201Z,12.51
2019-04-07T15:07:46.268Z,11.63
2019-04-07T15:10:24.521Z,10.77
2019-04-07T15:12:58.102Z,10.55
2019-04-07T15:15:31.412Z,11.79
2019-04-07T15:18:01.773Z,11.53
2019-04-07T15:20:32.316Z,10.48
2019-04-07T15:23:05.534Z,9.49
2019-04-07T15:25:40.104Z,8.96
2019-04-07T15:28:09.006Z,8.66
2019-04-07T15:30:39.640Z,8.38
2019-04-07T15:36:09.264Z,8.73
2019-04-07T15:38:41.716Z,8.61
2019-04-07T15:41:15.624Z,8.55
2019-04-07T15:43:45.303Z,8.23
2019-04-07T15:46:18.056Z,7.99
2019-04-07T15:48:48.431Z,7.81
2019-04-07T15:51:20.536Z,7.71
2019-04-07T15:53:52.058Z,7.45
2019-04-07T15:56:23.962Z,7.06
2019-04-07T15:59:04.871Z,6.77
2019-04-07T16:01:38.009Z,6.62
2019-04-07T16:04:07.421Z,6.65
2019-04-07T16:06:38.708Z,6.73
2019-04-07T16:09:16.692Z,6.66
2019-04-07T16:11:42.360Z,6.68
2019-04-07T16:14:14.642Z,6.70
2019-04-07T16:16:45.127Z,6.49
2019-04-07T16:19:19.814Z,6.42
2019-04-07T16:21:48.254Z,6.40
2019-04-07T16:24:20.893Z,6.28
2019-04-07T16:26:51.458Z,6.30
2019-04-07T16:29:23.522Z,6.28
2019-04-07T16:31:57.003Z,6.16
2019-04-07T16:34:26.335Z,6.10
2019-04-07T16:36:59.367Z,6.01
2019-04-07T16:39:32.404Z,6.02
2019-04-07T16:42:01.007Z,5.94
2019-04-07T16:44:31.872Z,5.95
2019-04-07T16:47:04.007Z,5.83
2019-04-07T16:49:34.130Z,5.79
2019-04-07T16:52:05.928Z,5.75
2019-04-07T16:54:43.458Z,5.74
2019-04-07T16:57:12.981Z,5.67
2019-04-07T16:59:43.613Z,5.73
2019-04-07T17:02:17.610Z,5.65
2019-04-07T17:04:46.909Z,5.68
2019-04-07T17:07:21.060Z,5.62
2019-04-07T17:09:54.944Z,5.39
2019-04-07T17:12:23.897Z,5.33
2019-04-07T17:14:54.385Z,5.17
2019-04-07T17:17:31.426Z,5.17
2019-04-07T17:20:03.621Z,5.07
2019-04-07T17:23:02.057Z,5.20
2019-04-07T17:25:38.056Z,4.82
2019-04-07T17:28:13.567Z,5.01
2019-04-07T17:31:05.871Z,4.94
2019-04-07T17:33:37.923Z,4.61
2019-04-07T17:36:09.000Z,5.01
2019-04-07T17:38:45.320Z,4.98
2019-04-07T17:41:21.439Z,4.96
2019-04-07T17:44:04.481Z,4.94
2019-04-07T17:46:49.190Z,4.89
2019-04-07T17:49:50.451Z,4.92
2019-04-07T17:52:40.891Z,4.82
2019-04-07T17:55:30.822Z,4.77
2019-04-07T17:58:16.022Z,4.71
2019-04-07T18:01:04.653Z,4.71
2019-04-07T18:03:57.079Z,4.79
2019-04-07T18:06:40.361Z,4.75
2019-04-07T18:09:29.873Z,4.66
2019-04-07T18:12:19.833Z,4.61
2019-04-07T18:15:06.402Z,4.65
2019-04-07T18:17:56.077Z,4.63
2019-04-07T18:20:47.433Z,4.63
2019-04-07T18:23:39.825Z,4.55
2019-04-07T18:26:25.143Z,4.57
2019-04-07T18:29:13.655Z,4.55
2019-04-07T18:32:00.130Z,4.73
2019-04-07T18:34:49.663Z,4.62
2019-04-07T18:37:42.262Z,4.48
2019-04-07T18:40:27.303Z,4.56
2019-04-07T18:43:15.695Z,4.59
2019-04-07T18:46:07.303Z,4.59
2019-04-07T18:48:53.359Z,4.62
2019-04-07T18:51:47.079Z,4.52
2019-04-07T18:54:36.716Z,4.62
2019-04-07T18:57:36.042Z,4.52
2019-04-07T19:00:24.594Z,4.56
2019-04-07T19:03:02.452Z,4.56
2019-04-07T19:05:43.676Z,4.66
2019-04-07T19:08:32.748Z,4.72
2019-04-07T19:11:14.863Z,4.82
2019-04-07T19:14:30.675Z,4.72
2019-04-07T19:16:50.909Z,4.73
2019-04-07T19:19:39.738Z,4.63
2019-04-07T19:22:21.252Z,4.79
2019-04-07T19:25:33.595Z,4.80
2019-04-07T19:28:38.309Z,4.70
2019-04-07T19:31:30.691Z,4.63
2019-04-07T19:34:20.532Z,4.61
2019-04-07T19:37:10.272Z,4.54
2019-04-07T19:40:02.482Z,4.62
2019-04-07T19:42:56.354Z,4.64
2019-04-07T19:46:04.851Z,4.69
2019-04-07T19:48:57.445Z,4.57
2019-04-07T19:51:48.538Z,4.69
2019-04-07T19:54:29.966Z,4.69
2019-04-07T19:57:18.158Z,4.60
2019-04-07T20:00:22.195Z,4.57
2019-04-07T20:03:09.659Z,4.51
2019-04-07T20:05:50.883Z,4.43
2019-04-07T20:08:43.791Z,4.49
2019-04-07T20:11:37.078Z,4.43
2019-04-07T20:14:18.336Z,4.55
2019-04-07T20:17:16.530Z,4.45
2019-04-07T20:19:55.649Z,4.54
2019-04-07T20:23:04.409Z,4.50
2019-04-07T20:25:44.849Z,4.45
2019-04-07T20:28:21.013Z,4.46
2019-04-07T20:31:28.463Z,4.43
2019-04-07T20:34:21.083Z,4.44
2019-04-07T20:37:07.220Z,4.46
2019-04-07T20:40:17.456Z,4.36
2019-04-07T20:42:54.613Z,4.31
2019-04-07T20:45:53.840Z,4.31
2019-04-07T20:48:37.277Z,4.24
2019-04-07T20:51:30.601Z,4.27
2019-04-07T20:54:17.399Z,4.22
2019-04-07T20:57:16.366Z,4.11
2019-04-07T21:00:02.351Z,4.16
2019-04-07T21:02:43.291Z,4.03
2019-04-07T21:05:35.781Z,4.02
2019-04-07T21:08:25.924Z,3.99
2019-04-07T21:11:08.072Z,3.88
2019-04-07T21:13:56.471Z,3.85
2019-04-07T21:17:01.621Z,3.68
2019-04-07T21:19:50.851Z,3.52
2019-04-07T21:22:55.934Z,3.46
2019-04-07T21:25:41.324Z,3.48
2019-04-07T21:28:24.608Z,3.34
2019-04-07T21:31:17.286Z,3.31
2019-04-07T21:33:57.524Z,3.28
2019-04-07T21:36:40.529Z,3.29
2019-04-07T21:39:25.893Z,3.23
2019-04-07T21:42:16.217Z,3.17
2019-04-07T21:45:07.322Z,3.20
2019-04-07T21:47:46.822Z,3.10
2019-04-07T21:50:40.023Z,3.17
2019-04-07T21:53:29.169Z,3.07
2019-04-07T21:56:11.411Z,3.08
2019-04-07T21:58:57.881Z,3.07
2019-04-07T22:01:37.786Z,2.97
2019-04-07T22:04:30.214Z,3.02
2019-04-07T22:07:27.642Z,2.92
2019-04-07T22:10:00.687Z,2.87
2019-04-07T22:12:33.010Z,2.86
2019-04-07T22:15:05.034Z,2.89
2019-04-07T22:17:37.169Z,2.86
2019-04-07T22:20:08.463Z,2.86
2019-04-07T22:22:38.956Z,2.91
2019-04-07T22:25:11.485Z,2.88
2019-04-07T22:27:41.900Z,2.89
2019-04-07T22:30:14.383Z,2.87
2019-04-07T22:32:44.936Z,2.92
2019-04-07T22:35:15.463Z,2.90
2019-04-07T22:37:48.295Z,2.91
2019-04-07T22:40:21.405Z,2.86
2019-04-07T22:42:51.827Z,2.82
2019-04-07T22:45:27.780Z,2.89
2019-04-07T22:47:55.086Z,2.94
2019-04-07T22:50:25.539Z,2.89
2019-04-07T22:52:55.932Z,2.80
2019-04-07T22:55:27.027Z,2.80
2019-04-07T22:57:57.859Z,2.75
2019-04-07T23:00:28.762Z,2.75
2019-04-07T23:02:59.471Z,2.67
2019-04-07T23:05:29.984Z,2.66
2019-04-07T23:08:00.274Z,2.60
2019-04-07T23:10:31.564Z,2.61
2019-04-07T23:13:02.044Z,2.60
2019-04-07T23:15:41.568Z,2.55
2019-04-07T23:18:05.430Z,2.55
2019-04-07T23:20:35.912Z,2.53
2019-04-07T23:23:06.817Z,2.57
2019-04-07T23:25:37.188Z,2.53
2019-04-07T23:28:08.210Z,2.54
2019-04-07T23:30:38.541Z,2.41
2019-04-07T23:33:08.856Z,2.40
2019-04-07T23:35:39.341Z,2.32
2019-04-07T23:38:09.761Z,2.32
2019-04-07T23:40:40.193Z,2.22
2019-04-07T23:43:11.155Z,2.12
2019-04-07T23:45:41.983Z,2.15
2019-04-07T23:48:12.691Z,2.13
2019-04-07T23:50:44.414Z,2.10
2019-04-07T23:53:50.824Z,1.98
2019-04-07T23:56:21.223Z,1.92
2019-04-07T23:58:52.041Z,1.83
